sensor_id;sensor_type;location;lat;lon;timestamp;pressure;altitude;pressure_sealevel;temperature;humidity
73316;BME280;61545;53.726;-0.444;2023-10-31T00:00:27;995.1;;;unknown;100.0
73316;BME280;61545;53.726;-0.444;2023-10-31T00:05:27;995.1;;;9.1;100.0
73316;BME280;61545;53.726;-0.444;2023-10-31T00:10:27;995.2;;;9.0;100.0
73316;BME280;61545;53.726;-0.444;2023-10-31T00:15:27;995.2;;;unknown;100.0
73316;BME280;61545;53.726;-0.444;2023-10-31T00:20:27;995.2;;;8.9;100.0
73316;BME280;61545;53.726;-0.444;2023-10-31T00:25:27;995.2;;;9.0;100.0
73316;BME280;61545;53.726;-0.444;2023-10-31T00:30:27;995.3;;;9.0;100.0
73316;BME280;61545;53.726;-0.444;2023-10-31T00:35:27;995.3;;;9.0;100.0
73316;BME280;61545;53.726;-0.444;2023-10-31T00:40:27;995.3;;;unknown;100.0
73316;BME280;61545;53.726;-0.444;2023-10-31T00:45:27;995.3;;;9.0;100.0
73316;BME280;61545;53.726;-0.444;2023-10-31T00:50:27;995.3;;;9.0;100.0
73316;BME280;61545;53.726;-0.444;2023-10-31T00:55:27;995.4;;;unknown;100.0
73316;BME280;61545;53.726;-0.444;2023-10-31T01:00:27;995.4;;;unknown;100.0
73316;BME280;61545;53.726;-0.444;2023-10-31T01:05:27;995.4;;;unknown;100.0
73316;BME280;61545;53.726;-0.444;2023-10-31T01:10:27;995.4;;;8.9;100.0
73316;BME280;61545;53.726;-0.444;2023-10-31T01:15:27;995.4;;;9.0;100.0
73316;BME280;61545;53.726;-0.444;2023-10-31T01:20:27;995.4;;;8.9;100.0
73316;BME280;61545;53.726;-0.444;2023-10-31T01:25:27;995.4;;;9.0;100.0
73316;BME280;61545;53.726;-0.444;2023-10-31T01:30:27;995.4;;;unknown;100.0
73316;BME280;61545;53.726;-0.444;2023-10-31T01:35:27;995.5;;;unknown;100.0
73316;BME280;61545;53.726;-0.444;2023-10-31T01:40:27;995.5;;;unknown;100.0
73316;BME280;61545;53.726;-0.444;2023-10-31T01:45:27;995.6;;;8.9;100.0
73316;BME280;61545;53.726;-0.444;2023-10-31T01:50:27;995.6;;;9.0;100.0
73316;BME280;61545;53.726;-0.444;2023-10-31T01:55:27;995.6;;;9.0;100.0
73316;BME280;61545;53.726;-0.444;2023-10-31T02:00:27;995.7;;;unknown;100.0
73316;BME280;61545;53.726;-0.444;2023-10-31T02:05:27;995.7;;;unknown;100.0
73316;BME280;61545;53.726;-0.444;2023-10-31T02:10:27;995.6;;;8.9;100.0
73316;BME280;61545;53.726;-0.444;2023-10-31T02:15:27;995.7;;;unknown;100.0
73316;BME280;61545;53.726;-0.444;2023-10-31T02:20:27;995.6;;;unknown;100.0
73316;BME280;61545;53.726;-0.444;2023-10-31T02:25:27;995.7;;;8.9;100.0
73316;BME280;61545;53.726;-0.444;2023-10-31T02:30:27;995.7;;;unknown;100.0
73316;BME280;61545;53.726;-0.444;2023-10-31T02:35:27;995.7;;;unknown;100.0
73316;BME280;61545;53.726;-0.444;2023-10-31T02:40:27;995.6;;;8.9;100.0
73316;BME280;61545;53.726;-0.444;2023-10-31T02:45:27;995.4;;;8.9;100.0
73316;BME280;61545;53.726;-0.444;2023-10-31T02:50:27;995.4;;;unknown;100.0
73316;BME280;61545;53.726;-0.444;2023-10-31T02:55:27;995.3;;;9.0;100.0
73316;BME280;61545;53.726;-0.444;2023-10-31T03:00:27;995.4;;;8.9;100.0
73316;BME280;61545;53.726;-0.444;2023-10-31T03:05:27;995.5;;;8.9;100.0
73316;BME280;61545;53.726;-0.444;2023-10-31T03:10:27;995.6;;;8.9;100.0
73316;BME280;61545;53.726;-0.444;2023-10-31T03:15:27;995.6;;;unknown;100.0
73316;BME280;61545;53.726;-0.444;2023-10-31T03:20:27;995.6;;;8.9;100.0
73316;BME280;61545;53.726;-0.444;2023-10-31T03:25:27;995.6;;;unknown;100.0
73316;BME280;61545;53.726;-0.444;2023-10-31T03:30:27;995.6;;;8.9;100.0
73316;BME280;61545;53.726;-0.444;2023-10-31T03:35:27;995.5;;;8.9;100.0
73316;BME280;61545;53.726;-0.444;2023-10-31T03:40:27;995.6;;;8.7;100.0
73316;BME280;61545;53.726;-0.444;2023-10-31T03:45:27;995.7;;;8.8;100.0
73316;BME280;61545;53.726;-0.444;2023-10-31T03:50:27;995.7;;;8.9;100.0
73316;BME280;61545;53.726;-0.444;2023-10-31T03:55:27;995.7;;;8.9;100.0
73316;BME280;61545;53.726;-0.444;2023-10-31T04:00:27;995.7;;;9.0;100.0
73316;BME280;61545;53.726;-0.444;2023-10-31T04:05:27;995.7;;;9.0;100.0
73316;BME280;61545;53.726;-0.444;2023-10-31T04:10:27;995.7;;;9.0;100.0
73316;BME280;61545;53.726;-0.444;2023-10-31T04:15:27;995.7;;;9.0;100.0
73316;BME280;61545;53.726;-0.444;2023-10-31T04:20:27;995.6;;;9.0;100.0
73316;BME280;61545;53.726;-0.444;2023-10-31T04:25:27;995.8;;;9.0;100.0
73316;BME280;61545;53.726;-0.444;2023-10-31T04:30:27;995.8;;;8.9;100.0
73316;BME280;61545;53.726;-0.444;2023-10-31T04:35:27;995.9;;;8.9;100.0
73316;BME280;61545;53.726;-0.444;2023-10-31T04:40:27;995.9;;;8.9;100.0
73316;BME280;61545;53.726;-0.444;2023-10-31T04:45:27;995.8;;;9.0;100.0
73316;BME280;61545;53.726;-0.444;2023-10-31T04:50:27;995.8;;;8.9;100.0
73316;BME280;61545;53.726;-0.444;2023-10-31T04:55:27;995.7;;;unknown;100.0
73316;BME280;61545;53.726;-0.444;2023-10-31T05:00:27;995.7;;;9.0;100.0
73316;BME280;61545;53.726;-0.444;2023-10-31T05:05:27;995.6;;;unknown;100.0
73316;BME280;61545;53.726;-0.444;2023-10-31T05:10:27;995.5;;;unknown;100.0
73316;BME280;61545;53.726;-0.444;2023-10-31T05:15:27;995.7;;;unknown;100.0
73316;BME280;61545;53.726;-0.444;2023-10-31T05:20:27;995.7;;;8.9;100.0
73316;BME280;61545;53.726;-0.444;2023-10-31T05:25:27;995.8;;;unknown;100.0
73316;BME280;61545;53.726;-0.444;2023-10-31T05:30:27;995.9;;;8.9;100.0
73316;BME280;61545;53.726;-0.444;2023-10-31T05:35:27;995.9;;;unknown;100.0
73316;BME280;61545;53.726;-0.444;2023-10-31T05:40:27;995.9;;;8.9;100.0
73316;BME280;61545;53.726;-0.444;2023-10-31T05:45:27;995.9;;;unknown;100.0
73316;BME280;61545;53.726;-0.444;2023-10-31T05:50:27;995.9;;;unknown;100.0
73316;BME280;61545;53.726;-0.444;2023-10-31T05:55:27;996.0;;;unknown;100.0
73316;BME280;61545;53.726;-0.444;2023-10-31T06:00:27;996.0;;;unknown;100.0
73316;BME280;61545;53.726;-0.444;2023-10-31T06:05:27;995.9;;;9.0;100.0
73316;BME280;61545;53.726;-0.444;2023-10-31T06:10:27;996.0;;;8.9;100.0
73316;BME280;61545;53.726;-0.444;2023-10-31T06:15:27;995.9;;;8.9;100.0
73316;BME280;61545;53.726;-0.444;2023-10-31T06:20:27;995.9;;;8.9;100.0
73316;BME280;61545;53.726;-0.444;2023-10-31T06:25:27;995.9;;;9.0;100.0
73316;BME280;61545;53.726;-0.444;2023-10-31T06:30:27;996.0;;;9.1;100.0
73316;BME280;61545;53.726;-0.444;2023-10-31T06:35:27;996.1;;;unknown;100.0
73316;BME280;61545;53.726;-0.444;2023-10-31T06:40:27;996.1;;;unknown;100.0
73316;BME280;61545;53.726;-0.444;2023-10-31T06:45:27;996.2;;;9.0;100.0
73316;BME280;61545;53.726;-0.444;2023-10-31T06:50:27;996.2;;;9.0;100.0
73316;BME280;61545;53.726;-0.444;2023-10-31T06:55:27;996.2;;;9.0;100.0
73316;BME280;61545;53.726;-0.444;2023-10-31T07:00:27;996.2;;;9.0;100.0
73316;BME280;61545;53.726;-0.444;2023-10-31T07:05:27;996.2;;;9.0;100.0
73316;BME280;61545;53.726;-0.444;2023-10-31T07:10:27;996.3;;;unknown;100.0
73316;BME280;61545;53.726;-0.444;2023-10-31T07:15:27;996.3;;;unknown;100.0
73316;BME280;61545;53.726;-0.444;2023-10-31T07:20:27;996.3;;;9.2;100.0
73316;BME280;61545;53.726;-0.444;2023-10-31T07:25:27;996.4;;;9.1;100.0
73316;BME280;61545;53.726;-0.444;2023-10-31T07:30:27;996.5;;;9.1;100.0
73316;BME280;61545;53.726;-0.444;2023-10-31T07:35:27;996.5;;;9.0;100.0
73316;BME280;61545;53.726;-0.444;2023-10-31T07:40:27;996.6;;;9.0;100.0
73316;BME280;61545;53.726;-0.444;2023-10-31T07:45:27;996.5;;;9.2;100.0
73316;BME280;61545;53.726;-0.444;2023-10-31T07:50:27;996.6;;;unknown;100.0
73316;BME280;61545;53.726;-0.444;2023-10-31T07:55:27;996.6;;;9.2;100.0
73316;BME280;61545;53.726;-0.444;2023-10-31T08:00:27;996.6;;;9.1;100.0
73316;BME280;61545;53.726;-0.444;2023-10-31T08:05:27;996.6;;;9.2;100.0
73316;BME280;61545;53.726;-0.444;2023-10-31T08:10:27;996.6;;;9.2;100.0
73316;BME280;61545;53.726;-0.444;2023-10-31T08:15:27;996.7;;;unknown;100.0
73316;BME280;61545;53.726;-0.444;2023-10-31T08:20:27;996.7;;;unknown;100.0
73316;BME280;61545;53.726;-0.444;2023-10-31T08:25:27;996.7;;;9.0;100.0
73316;BME280;61545;53.726;-0.444;2023-10-31T08:30:27;996.7;;;9.0;100.0
73316;BME280;61545;53.726;-0.444;2023-10-31T08:35:27;996.8;;;9.1;100.0
73316;BME280;61545;53.726;-0.444;2023-10-31T08:40:27;996.8;;;unknown;100.0
73316;BME280;61545;53.726;-0.444;2023-10-31T08:45:27;996.9;;;9.2;100.0
73316;BME280;61545;53.726;-0.444;2023-10-31T08:50:27;997.0;;;9.2;100.0
73316;BME280;61545;53.726;-0.444;2023-10-31T08:55:27;996.9;;;9.1;100.0
73316;BME280;61545;53.726;-0.444;2023-10-31T09:00:27;996.8;;;9.2;100.0
73316;BME280;61545;53.726;-0.444;2023-10-31T09:05:27;996.8;;;9.2;100.0
73316;BME280;61545;53.726;-0.444;2023-10-31T09:10:27;996.9;;;unknown;100.0
73316;BME280;61545;53.726;-0.444;2023-10-31T09:15:27;996.8;;;unknown;100.0
73316;BME280;61545;53.726;-0.444;2023-10-31T09:20:27;996.8;;;9.3;100.0
73316;BME280;61545;53.726;-0.444;2023-10-31T09:25:27;996.8;;;9.3;100.0
73316;BME280;61545;53.726;-0.444;2023-10-31T09:30:27;996.9;;;9.3;100.0
73316;BME280;61545;53.726;-0.444;2023-10-31T09:35:27;996.9;;;9.2;100.0
73316;BME280;61545;53.726;-0.444;2023-10-31T09:40:27;996.9;;;unknown;100.0
73316;BME280;61545;53.726;-0.444;2023-10-31T09:45:27;997.0;;;9.3;100.0
73316;BME280;61545;53.726;-0.444;2023-10-31T09:50:27;997.0;;;9.2;100.0
73316;BME280;61545;53.726;-0.444;2023-10-31T09:55:27;997.0;;;9.3;100.0
73316;BME280;61545;53.726;-0.444;2023-10-31T10:00:27;997.0;;;9.3;100.0
73316;BME280;61545;53.726;-0.444;2023-10-31T10:05:27;997.1;;;9.4;100.0
73316;BME280;61545;53.726;-0.444;2023-10-31T10:10:27;997.1;;;9.4;100.0
73316;BME280;61545;53.726;-0.444;2023-10-31T10:15:27;997.1;;;9.4;100.0
73316;BME280;61545;53.726;-0.444;2023-10-31T10:20:27;997.1;;;unknown;100.0
73316;BME280;61545;53.726;-0.444;2023-10-31T10:25:27;997.1;;;9.5;100.0
73316;BME280;61545;53.726;-0.444;2023-10-31T10:30:27;997.1;;;9.5;100.0
73316;BME280;61545;53.726;-0.444;2023-10-31T10:35:27;997.1;;;9.6;100.0
73316;BME280;61545;53.726;-0.444;2023-10-31T10:40:27;997.0;;;9.5;100.0
73316;BME280;61545;53.726;-0.444;2023-10-31T10:45:27;997.0;;;9.5;100.0
73316;BME280;61545;53.726;-0.444;2023-10-31T10:50:27;997.0;;;9.6;100.0
73316;BME280;61545;53.726;-0.444;2023-10-31T10:55:27;997.0;;;9.7;100.0
73316;BME280;61545;53.726;-0.444;2023-10-31T11:00:27;996.9;;;unknown;100.0
73316;BME280;61545;53.726;-0.444;2023-10-31T11:05:27;996.9;;;9.7;100.0
73316;BME280;61545;53.726;-0.444;2023-10-31T11:10:27;997.0;;;unknown;100.0
73316;BME280;61545;53.726;-0.444;2023-10-31T11:15:27;996.9;;;unknown;100.0
73316;BME280;61545;53.726;-0.444;2023-10-31T11:20:27;996.9;;;unknown;100.0
73316;BME280;61545;53.726;-0.444;2023-10-31T11:25:27;996.8;;;unknown;100.0
73316;BME280;61545;53.726;-0.444;2023-10-31T11:30:28;996.9;;;9.7;100.0
73316;BME280;61545;53.726;-0.444;2023-10-31T11:35:29;996.8;;;9.8;100.0
73316;BME280;61545;53.726;-0.444;2023-10-31T11:40:27;996.8;;;9.8;100.0
73316;BME280;61545;53.726;-0.444;2023-10-31T11:45:28;996.8;;;9.7;100.0
73316;BME280;61545;53.726;-0.444;2023-10-31T11:50:27;996.8;;;9.7;100.0
73316;BME280;61545;53.726;-0.444;2023-10-31T11:55:27;996.8;;;9.7;100.0
73316;BME280;61545;53.726;-0.444;2023-10-31T12:00:27;996.7;;;9.9;100.0
73316;BME280;61545;53.726;-0.444;2023-10-31T12:05:27;996.8;;;9.9;100.0
73316;BME280;61545;53.726;-0.444;2023-10-31T12:10:28;996.8;;;unknown;100.0
73316;BME280;61545;53.726;-0.444;2023-10-31T12:15:27;996.8;;;9.9;100.0
73316;BME280;61545;53.726;-0.444;2023-10-31T12:20:27;996.8;;;10.0;100.0
73316;BME280;61545;53.726;-0.444;2023-10-31T12:25:27;996.8;;;unknown;100.0
73316;BME280;61545;53.726;-0.444;2023-10-31T12:30:27;996.8;;;9.9;100.0
73316;BME280;61545;53.726;-0.444;2023-10-31T12:35:27;996.9;;;9.9;100.0
73316;BME280;61545;53.726;-0.444;2023-10-31T12:40:27;996.9;;;9.9;100.0
73316;BME280;61545;53.726;-0.444;2023-10-31T12:45:28;997.0;;;unknown;100.0
73316;BME280;61545;53.726;-0.444;2023-10-31T12:50:27;997.0;;;10.0;100.0
73316;BME280;61545;53.726;-0.444;2023-10-31T12:55:27;997.0;;;10.0;100.0
73316;BME280;61545;53.726;-0.444;2023-10-31T13:00:31;997.0;;;unknown;100.0
73316;BME280;61545;53.726;-0.444;2023-10-31T13:05:27;997.0;;;unknown;100.0
73316;BME280;61545;53.726;-0.444;2023-10-31T13:10:27;997.0;;;9.9;100.0
73316;BME280;61545;53.726;-0.444;2023-10-31T13:15:27;997.1;;;9.9;100.0
73316;BME280;61545;53.726;-0.444;2023-10-31T13:20:27;997.1;;;10.0;100.0
73316;BME280;61545;53.726;-0.444;2023-10-31T13:25:27;997.1;;;9.9;100.0
73316;BME280;61545;53.726;-0.444;2023-10-31T13:30:27;997.1;;;9.9;100.0
73316;BME280;61545;53.726;-0.444;2023-10-31T13:35:27;997.1;;;9.9;100.0
73316;BME280;61545;53.726;-0.444;2023-10-31T13:40:27;997.0;;;unknown;100.0
73316;BME280;61545;53.726;-0.444;2023-10-31T13:45:27;997.0;;;9.9;100.0
73316;BME280;61545;53.726;-0.444;2023-10-31T13:50:27;997.0;;;9.9;100.0
73316;BME280;61545;53.726;-0.444;2023-10-31T13:55:27;996.9;;;10.1;100.0
73316;BME280;61545;53.726;-0.444;2023-10-31T14:00:27;997.0;;;9.9;100.0
73316;BME280;61545;53.726;-0.444;2023-10-31T14:05:27;997.1;;;unknown;100.0
73316;BME280;61545;53.726;-0.444;2023-10-31T14:10:27;997.1;;;9.9;100.0
73316;BME280;61545;53.726;-0.444;2023-10-31T14:15:27;997.1;;;9.9;100.0
73316;BME280;61545;53.726;-0.444;2023-10-31T14:20:27;997.1;;;9.9;100.0
73316;BME280;61545;53.726;-0.444;2023-10-31T14:25:27;997.1;;;9.8;100.0
73316;BME280;61545;53.726;-0.444;2023-10-31T14:30:27;997.1;;;unknown;100.0
73316;BME280;61545;53.726;-0.444;2023-10-31T14:35:27;997.1;;;9.8;100.0
73316;BME280;61545;53.726;-0.444;2023-10-31T14:40:27;997.1;;;9.8;100.0
73316;BME280;61545;53.726;-0.444;2023-10-31T14:45:27;997.0;;;9.9;100.0
73316;BME280;61545;53.726;-0.444;2023-10-31T14:50:27;997.1;;;10.0;100.0
73316;BME280;61545;53.726;-0.444;2023-10-31T14:55:27;997.1;;;10.0;100.0
73316;BME280;61545;53.726;-0.444;2023-10-31T15:00:27;997.1;;;9.9;100.0
73316;BME280;61545;53.726;-0.444;2023-10-31T15:05:27;997.2;;;9.9;100.0
73316;BME280;61545;53.726;-0.444;2023-10-31T15:10:27;997.2;;;9.9;100.0
73316;BME280;61545;53.726;-0.444;2023-10-31T15:15:27;997.1;;;9.9;100.0
73316;BME280;61545;53.726;-0.444;2023-10-31T15:20:27;997.1;;;9.9;100.0
73316;BME280;61545;53.726;-0.444;2023-10-31T15:25:27;997.2;;;9.9;100.0
73316;BME280;61545;53.726;-0.444;2023-10-31T15:30:27;997.2;;;9.7;100.0
73316;BME280;61545;53.726;-0.444;2023-10-31T15:35:27;997.3;;;9.7;100.0
73316;BME280;61545;53.726;-0.444;2023-10-31T15:40:27;997.3;;;unknown;100.0
73316;BME280;61545;53.726;-0.444;2023-10-31T15:45:27;997.3;;;9.7;100.0
73316;BME280;61545;53.726;-0.444;2023-10-31T15:50:27;997.2;;;unknown;100.0
73316;BME280;61545;53.726;-0.444;2023-10-31T15:55:27;997.3;;;9.8;100.0
73316;BME280;61545;53.726;-0.444;2023-10-31T16:00:27;997.4;;;unknown;100.0
73316;BME280;61545;53.726;-0.444;2023-10-31T16:05:27;997.4;;;unknown;100.0
73316;BME280;61545;53.726;-0.444;2023-10-31T16:10:27;997.5;;;9.6;100.0
73316;BME280;61545;53.726;-0.444;2023-10-31T16:15:27;997.5;;;9.7;100.0
73316;BME280;61545;53.726;-0.444;2023-10-31T16:20:27;997.5;;;9.6;100.0
73316;BME280;61545;53.726;-0.444;2023-10-31T16:25:27;997.5;;;9.7;100.0
73316;BME280;61545;53.726;-0.444;2023-10-31T16:30:27;997.5;;;unknown;100.0
73316;BME280;61545;53.726;-0.444;2023-10-31T16:35:27;997.5;;;9.7;100.0
73316;BME280;61545;53.726;-0.444;2023-10-31T16:40:27;997.5;;;9.6;100.0
73316;BME280;61545;53.726;-0.444;2023-10-31T16:45:27;997.5;;;9.6;100.0
73316;BME280;61545;53.726;-0.444;2023-10-31T16:50:27;997.5;;;9.6;100.0
73316;BME280;61545;53.726;-0.444;2023-10-31T16:55:27;997.5;;;unknown;100.0
73316;BME280;61545;53.726;-0.444;2023-10-31T17:00:27;997.4;;;9.7;100.0
73316;BME280;61545;53.726;-0.444;2023-10-31T17:05:27;997.5;;;unknown;100.0
73316;BME280;61545;53.726;-0.444;2023-10-31T17:10:27;997.5;;;unknown;100.0
73316;BME280;61545;53.726;-0.444;2023-10-31T17:15:27;997.5;;;unknown;100.0
73316;BME280;61545;53.726;-0.444;2023-10-31T17:20:27;997.5;;;unknown;100.0
73316;BME280;61545;53.726;-0.444;2023-10-31T17:25:27;997.5;;;9.6;100.0
73316;BME280;61545;53.726;-0.444;2023-10-31T17:30:27;997.5;;;9.7;100.0
73316;BME280;61545;53.726;-0.444;2023-10-31T17:35:27;997.5;;;9.7;100.0
73316;BME280;61545;53.726;-0.444;2023-10-31T17:40:27;997.5;;;9.7;100.0
73316;BME280;61545;53.726;-0.444;2023-10-31T17:45:27;997.5;;;unknown;100.0
73316;BME280;61545;53.726;-0.444;2023-10-31T17:50:27;997.4;;;9.6;100.0
73316;BME280;61545;53.726;-0.444;2023-10-31T17:55:27;997.5;;;9.5;100.0
73316;BME280;61545;53.726;-0.444;2023-10-31T18:00:27;997.6;;;unknown;100.0
73316;BME280;61545;53.726;-0.444;2023-10-31T18:05:27;997.6;;;unknown;100.0
73316;BME280;61545;53.726;-0.444;2023-10-31T18:10:27;997.6;;;9.5;100.0
73316;BME280;61545;53.726;-0.444;2023-10-31T18:15:27;997.6;;;9.5;100.0
73316;BME280;61545;53.726;-0.444;2023-10-31T18:20:27;997.6;;;9.6;100.0
73316;BME280;61545;53.726;-0.444;2023-10-31T18:25:27;997.6;;;9.5;100.0
73316;BME280;61545;53.726;-0.444;2023-10-31T18:30:27;997.6;;;9.5;100.0
73316;BME280;61545;53.726;-0.444;2023-10-31T18:35:27;997.5;;;unknown;100.0
73316;BME280;61545;53.726;-0.444;2023-10-31T18:40:27;997.5;;;unknown;100.0
73316;BME280;61545;53.726;-0.444;2023-10-31T18:45:27;997.5;;;9.7;100.0
73316;BME280;61545;53.726;-0.444;2023-10-31T18:50:27;997.5;;;9.6;100.0
73316;BME280;61545;53.726;-0.444;2023-10-31T18:55:27;997.5;;;unknown;100.0
73316;BME280;61545;53.726;-0.444;2023-10-31T19:00:27;997.4;;;9.6;100.0
73316;BME280;61545;53.726;-0.444;2023-10-31T19:05:27;997.4;;;unknown;100.0
73316;BME280;61545;53.726;-0.444;2023-10-31T19:10:27;997.5;;;9.5;100.0
73316;BME280;61545;53.726;-0.444;2023-10-31T19:15:27;997.4;;;unknown;100.0
73316;BME280;61545;53.726;-0.444;2023-10-31T19:20:27;997.4;;;9.4;100.0
73316;BME280;61545;53.726;-0.444;2023-10-31T19:25:27;997.3;;;unknown;100.0
73316;BME280;61545;53.726;-0.444;2023-10-31T19:30:27;997.2;;;9.4;100.0
73316;BME280;61545;53.726;-0.444;2023-10-31T19:35:27;997.2;;;9.5;100.0
73316;BME280;61545;53.726;-0.444;2023-10-31T19:40:27;997.2;;;9.5;100.0
73316;BME280;61545;53.726;-0.444;2023-10-31T19:45:27;997.2;;;9.5;100.0
73316;BME280;61545;53.726;-0.444;2023-10-31T19:50:27;997.1;;;9.5;100.0
73316;BME280;61545;53.726;-0.444;2023-10-31T19:55:27;997.1;;;9.5;100.0
73316;BME280;61545;53.726;-0.444;2023-10-31T20:00:27;997.1;;;unknown;100.0
73316;BME280;61545;53.726;-0.444;2023-10-31T20:05:27;997.1;;;9.5;100.0
73316;BME280;61545;53.726;-0.444;2023-10-31T20:10:27;997.2;;;9.4;100.0
73316;BME280;61545;53.726;-0.444;2023-10-31T20:15:27;997.2;;;9.5;100.0
73316;BME280;61545;53.726;-0.444;2023-10-31T20:20:27;997.2;;;9.4;100.0
73316;BME280;61545;53.726;-0.444;2023-10-31T20:25:27;997.3;;;9.4;100.0
73316;BME280;61545;53.726;-0.444;2023-10-31T20:30:27;997.3;;;9.4;100.0
73316;BME280;61545;53.726;-0.444;2023-10-31T20:35:27;997.2;;;unknown;100.0
73316;BME280;61545;53.726;-0.444;2023-10-31T20:40:27;997.2;;;unknown;100.0
73316;BME280;61545;53.726;-0.444;2023-10-31T20:45:27;997.1;;;9.4;100.0
73316;BME280;61545;53.726;-0.444;2023-10-31T20:50:27;997.0;;;9.4;100.0
73316;BME280;61545;53.726;-0.444;2023-10-31T20:55:27;997.0;;;9.4;100.0
73316;BME280;61545;53.726;-0.444;2023-10-31T21:00:27;997.0;;;9.4;100.0
73316;BME280;61545;53.726;-0.444;2023-10-31T21:05:27;996.9;;;9.4;100.0
73316;BME280;61545;53.726;-0.444;2023-10-31T21:10:27;996.7;;;9.4;100.0
73316;BME280;61545;53.726;-0.444;2023-10-31T21:15:27;996.8;;;unknown;100.0
73316;BME280;61545;53.726;-0.444;2023-10-31T21:20:27;996.7;;;unknown;100.0
73316;BME280;61545;53.726;-0.444;2023-10-31T21:25:27;996.6;;;unknown;100.0
73316;BME280;61545;53.726;-0.444;2023-10-31T21:30:27;996.6;;;unknown;100.0
73316;BME280;61545;53.726;-0.444;2023-10-31T21:35:27;996.4;;;9.4;100.0
73316;BME280;61545;53.726;-0.444;2023-10-31T21:40:27;996.5;;;9.4;100.0
73316;BME280;61545;53.726;-0.444;2023-10-31T21:45:27;996.4;;;9.4;100.0
73316;BME280;61545;53.726;-0.444;2023-10-31T21:50:27;996.4;;;unknown;100.0
73316;BME280;61545;53.726;-0.444;2023-10-31T21:55:27;996.4;;;9.3;100.0
73316;BME280;61545;53.726;-0.444;2023-10-31T22:00:27;996.4;;;unknown;100.0
73316;BME280;61545;53.726;-0.444;2023-10-31T22:05:27;996.4;;;9.3;100.0
73316;BME280;61545;53.726;-0.444;2023-10-31T22:10:27;996.4;;;unknown;100.0
73316;BME280;61545;53.726;-0.444;2023-10-31T22:15:27;996.4;;;9.1;100.0
73316;BME280;61545;53.726;-0.444;2023-10-31T22:20:27;996.4;;;9.0;100.0
73316;BME280;61545;53.726;-0.444;2023-10-31T22:25:27;996.4;;;9.0;100.0
73316;BME280;61545;53.726;-0.444;2023-10-31T22:30:27;996.4;;;9.0;100.0
73316;BME280;61545;53.726;-0.444;2023-10-31T22:35:27;996.3;;;unknown;100.0
73316;BME280;61545;53.726;-0.444;2023-10-31T22:40:27;996.1;;;unknown;100.0
73316;BME280;61545;53.726;-0.444;2023-10-31T22:45:27;996.2;;;9.0;100.0
73316;BME280;61545;53.726;-0.444;2023-10-31T22:50:27;996.1;;;8.9;100.0
73316;BME280;61545;53.726;-0.444;2023-10-31T22:55:27;996.0;;;8.9;100.0
73316;BME280;61545;53.726;-0.444;2023-10-31T23:00:27;995.9;;;8.9;100.0
73316;BME280;61545;53.726;-0.444;2023-10-31T23:05:27;995.9;;;8.9;100.0
73316;BME280;61545;53.726;-0.444;2023-10-31T23:10:27;995.9;;;unknown;100.0
73316;BME280;61545;53.726;-0.444;2023-10-31T23:15:27;995.8;;;8.8;100.0
73316;BME280;61545;53.726;-0.444;2023-10-31T23:20:27;995.8;;;8.7;100.0
73316;BME280;61545;53.726;-0.444;2023-10-31T23:25:27;995.7;;;unknown;100.0
73316;BME280;61545;53.726;-0.444;2023-10-31T23:30:27;995.7;;;8.8;100.0
73316;BME280;61545;53.726;-0.444;2023-10-31T23:35:27;995.6;;;unknown;100.0
73316;BME280;61545;53.726;-0.444;2023-10-31T23:40:27;995.5;;;8.7;100.0
73316;BME280;61545;53.726;-0.444;2023-10-31T23:45:27;995.4;;;8.7;100.0
73316;BME280;61545;53.726;-0.444;2023-10-31T23:50:27;995.4;;;unknown;100.0
73316;BME280;61545;53.726;-0.444;2023-10-31T23:55:27;995.3;;;unknown;100.0
